Time,TemperatureF,DewpointF,PressureIn,WindDirection,WindDirectionDegrees,WindSpeedMPH,WindSpeedGustMPH,Humidity,HourlyPrecipIn,Conditions,Clouds,dailyrainin,SolarRadiationWatts/m^2,SoftwareType,DateUTC
2013-02-25 00:01:00,46.0,38.0,-100.00,East,82,0.0,5.0,73,0.00,,,0.01,0.000000,,2013-02-25 05:01:00,
2013-02-25 00:11:00,46.0,38.0,-100.00,East,82,0.0,5.0,73,0.00,,,0.01,0.000000,,2013-02-25 05:11:00,
2013-02-25 00:22:00,46.0,38.0,-100.00,East,82,0.0,5.0,73,0.00,,,0.01,0.000000,,2013-02-25 05:22:00,
2013-02-25 00:52:00,46.0,38.0,-100.00,NW,318,1.0,3.0,73,0.00,,,0.01,0.000000,,2013-02-25 05:52:00,
2013-02-25 01:03:00,46.0,38.0,-100.00,NW,318,1.0,3.0,73,0.00,,,0.01,0.000000,,2013-02-25 06:03:00,
2013-02-25 01:12:00,46.0,38.0,-100.00,NW,318,1.0,3.0,73,0.00,,,0.01,0.000000,,2013-02-25 06:12:00,
2013-02-25 01:21:00,46.0,38.0,-100.00,NW,318,1.0,3.0,73,0.00,,,0.01,0.000000,,2013-02-25 06:21:00,
2013-02-25 01:52:00,48.0,39.0,-100.00,ENE,78,4.0,9.0,72,0.00,,,0.01,0.000000,,2013-02-25 06:52:00,
2013-02-25 02:01:00,48.0,39.0,-100.00,ENE,78,4.0,9.0,72,0.00,,,0.01,0.000000,,2013-02-25 07:01:00,
2013-02-25 02:11:00,48.0,39.0,-100.00,ENE,78,4.0,9.0,72,0.00,,,0.01,0.000000,,2013-02-25 07:11:00,
2013-02-25 02:21:00,48.0,39.0,-100.00,ENE,78,4.0,9.0,72,0.00,,,0.01,0.000000,,2013-02-25 07:21:00,
2013-02-25 02:52:00,45.0,35.0,-100.00,NNE,30,8.0,16.0,69,0.01,,,0.02,0.000000,,2013-02-25 07:52:00,
2013-02-25 03:11:00,45.0,35.0,-100.00,NNE,30,8.0,16.0,69,0.01,,,0.02,0.000000,,2013-02-25 08:11:00,
2013-02-25 03:22:00,45.0,35.0,-100.00,NNE,30,8.0,16.0,69,0.01,,,0.02,0.000000,,2013-02-25 08:22:00,
2013-02-25 03:52:00,42.0,31.0,-100.00,NNE,30,7.0,16.0,66,0.00,,,0.02,0.000000,,2013-02-25 08:52:00,
2013-02-25 04:52:00,41.0,30.0,-100.00,NNE,32,7.0,19.0,64,0.00,,,0.02,0.000000,,2013-02-25 09:52:00,
2013-02-25 05:01:00,41.0,30.0,-100.00,NNE,32,7.0,19.0,64,0.00,,,0.02,0.000000,,2013-02-25 10:01:00,
2013-02-25 05:11:00,41.0,30.0,-100.00,NNE,32,7.0,19.0,64,0.00,,,0.02,0.000000,,2013-02-25 10:11:00,
2013-02-25 05:21:00,41.0,30.0,-100.00,NNE,32,7.0,19.0,64,0.00,,,0.02,0.000000,,2013-02-25 10:21:00,
2013-02-25 05:52:00,40.0,29.0,-100.00,NNE,28,6.0,18.0,64,0.00,,,0.02,0.000000,,2013-02-25 10:52:00,
2013-02-25 06:01:00,40.0,29.0,-100.00,NNE,28,6.0,18.0,64,0.00,,,0.02,0.000000,,2013-02-25 11:01:00,
2013-02-25 06:11:00,40.0,29.0,-100.00,NNE,28,6.0,18.0,64,0.00,,,0.02,0.000000,,2013-02-25 11:11:00,
2013-02-25 06:22:00,40.0,29.0,-100.00,NNE,28,6.0,18.0,64,0.00,,,0.02,0.000000,,2013-02-25 11:22:00,
2013-02-25 06:52:00,40.0,28.0,-100.00,NNE,25,6.0,16.0,63,0.00,,,0.02,0.000000,,2013-02-25 11:52:00,
2013-02-25 07:02:00,40.0,28.0,-100.00,NNE,25,6.0,16.0,63,0.00,,,0.02,0.000000,,2013-02-25 12:02:00,
2013-02-25 07:11:00,40.0,28.0,-100.00,NNE,25,6.0,16.0,63,0.00,,,0.02,0.000000,,2013-02-25 12:11:00,
2013-02-25 07:21:00,40.0,28.0,-100.00,NNE,25,6.0,16.0,63,0.00,,,0.02,0.000000,,2013-02-25 12:21:00,
2013-02-25 07:56:00,40.0,28.0,-100.00,NNE,32,7.0,16.0,62,0.00,,,0.01,16.000000,,2013-02-25 12:56:00,
2013-02-25 08:02:00,40.0,28.0,-100.00,NNE,32,7.0,16.0,62,0.00,,,0.01,16.000000,,2013-02-25 13:02:00,
2013-02-25 08:12:00,40.0,28.0,-100.00,NNE,32,7.0,16.0,62,0.00,,,0.01,16.000000,,2013-02-25 13:12:00,
2013-02-25 08:22:00,40.0,28.0,-100.00,NNE,32,7.0,16.0,62,0.00,,,0.01,16.000000,,2013-02-25 13:22:00,
2013-02-25 08:52:00,41.0,29.0,-100.00,NNE,24,6.0,16.0,61,0.00,,,0.01,92.000000,,2013-02-25 13:52:00,
2013-02-25 09:04:00,41.0,29.0,-100.00,NNE,24,6.0,16.0,61,0.00,,,0.01,92.000000,,2013-02-25 14:04:00,
2013-02-25 09:18:00,41.0,29.0,-100.00,NNE,24,6.0,16.0,61,0.00,,,0.01,92.000000,,2013-02-25 14:18:00,
2013-02-25 09:52:00,42.0,29.0,-100.00,NNE,28,6.0,12.0,60,0.00,,,0.01,198.000000,,2013-02-25 14:52:00,
2013-02-25 10:03:00,42.0,29.0,-100.00,NNE,28,6.0,12.0,60,0.00,,,0.01,198.000000,,2013-02-25 15:03:00,
2013-02-25 10:11:00,42.0,29.0,-100.00,NNE,28,6.0,12.0,60,0.00,,,0.01,198.000000,,2013-02-25 15:11:00,
2013-02-25 10:22:00,42.0,29.0,-100.00,NNE,28,6.0,12.0,60,0.00,,,0.01,198.000000,,2013-02-25 15:22:00,
2013-02-25 10:52:00,44.0,31.0,-100.00,NNE,28,5.0,13.0,59,0.00,,,0.01,348.000000,,2013-02-25 15:52:00,
2013-02-25 11:02:00,44.0,31.0,-100.00,NNE,28,5.0,13.0,59,0.00,,,0.01,348.000000,,2013-02-25 16:02:00,
2013-02-25 11:12:00,44.0,31.0,-100.00,NNE,28,5.0,13.0,59,0.00,,,0.01,348.000000,,2013-02-25 16:12:00,
2013-02-25 11:22:00,44.0,31.0,-100.00,NNE,28,5.0,13.0,59,0.00,,,0.01,348.000000,,2013-02-25 16:22:00,
2013-02-25 11:52:00,44.0,30.0,-100.00,NE,35,5.0,11.0,58,0.00,,,0.01,411.000000,,2013-02-25 16:52:00,
2013-02-25 12:02:00,44.0,30.0,-100.00,NE,35,5.0,11.0,58,0.00,,,0.01,411.000000,,2013-02-25 17:02:00,
2013-02-25 12:11:00,44.0,30.0,-100.00,NE,35,5.0,11.0,58,0.00,,,0.01,411.000000,,2013-02-25 17:11:00,
2013-02-25 12:22:00,44.0,30.0,-100.00,NE,35,5.0,11.0,58,0.00,,,0.01,411.000000,,2013-02-25 17:22:00,
2013-02-25 12:52:00,44.0,30.0,-100.00,NE,35,5.0,13.0,57,0.00,,,0.01,359.000000,,2013-02-25 17:52:00,
2013-02-25 13:02:00,44.0,30.0,-100.00,NE,35,5.0,13.0,57,0.00,,,0.01,359.000000,,2013-02-25 18:02:00,
2013-02-25 13:12:00,44.0,30.0,-100.00,NE,35,5.0,13.0,57,0.00,,,0.01,359.000000,,2013-02-25 18:12:00,
2013-02-25 13:21:00,44.0,30.0,-100.00,NE,35,5.0,13.0,57,0.00,,,0.01,359.000000,,2013-02-25 18:21:00,
2013-02-25 13:52:00,44.0,30.0,-100.00,NE,37,5.0,11.0,58,0.00,,,-99.99,286.000000,,2013-02-25 18:52:00,
2013-02-25 14:02:00,44.0,30.0,-100.00,NE,37,5.0,11.0,58,0.00,,,-99.99,286.000000,,2013-02-25 19:02:00,
2013-02-25 14:11:00,44.0,30.0,-100.00,NE,37,5.0,11.0,58,0.00,,,-99.99,286.000000,,2013-02-25 19:11:00,
2013-02-25 14:22:00,44.0,30.0,-100.00,NE,37,5.0,11.0,58,0.00,,,-99.99,286.000000,,2013-02-25 19:22:00,
2013-02-25 14:52:00,45.0,31.0,-100.00,NNE,27,5.0,13.0,58,0.00,,,0.01,241.000000,,2013-02-25 19:52:00,
2013-02-25 15:01:00,45.0,31.0,-100.00,NNE,27,5.0,13.0,58,0.00,,,0.01,241.000000,,2013-02-25 20:01:00,
2013-02-25 15:11:00,45.0,31.0,-100.00,NNE,27,5.0,13.0,58,0.00,,,0.01,241.000000,,2013-02-25 20:11:00,
2013-02-25 15:22:00,45.0,31.0,-100.00,NNE,27,5.0,13.0,58,0.00,,,0.01,241.000000,,2013-02-25 20:22:00,
2013-02-25 15:52:00,44.0,31.0,-100.00,NNE,28,5.0,11.0,59,0.00,,,0.01,188.000000,,2013-02-25 20:52:00,
2013-02-25 16:02:00,44.0,31.0,-100.00,NNE,28,5.0,11.0,59,0.00,,,0.01,188.000000,,2013-02-25 21:02:00,
2013-02-25 16:11:00,44.0,31.0,-100.00,NNE,28,5.0,11.0,59,0.00,,,0.01,188.000000,,2013-02-25 21:11:00,
2013-02-25 16:21:00,44.0,31.0,-100.00,NNE,28,5.0,11.0,59,0.00,,,0.01,188.000000,,2013-02-25 21:21:00,
2013-02-25 16:52:00,44.0,31.0,-100.00,NNE,26,5.0,12.0,61,0.00,,,0.01,111.000000,,2013-02-25 21:52:00,
2013-02-25 17:02:00,44.0,31.0,-100.00,NNE,26,5.0,12.0,61,0.00,,,0.01,111.000000,,2013-02-25 22:02:00,
2013-02-25 17:11:00,44.0,31.0,-100.00,NNE,26,5.0,12.0,61,0.00,,,0.01,111.000000,,2013-02-25 22:11:00,
2013-02-25 17:21:00,44.0,31.0,-100.00,NNE,26,5.0,12.0,61,0.00,,,0.01,111.000000,,2013-02-25 22:21:00,
2013-02-25 17:52:00,43.0,30.0,-100.00,NE,47,4.0,11.0,61,0.00,,,0.01,42.000000,,2013-02-25 22:52:00,
2013-02-25 18:01:00,43.0,30.0,-100.00,NE,47,4.0,11.0,61,0.00,,,0.01,42.000000,,2013-02-25 23:01:00,
2013-02-25 18:11:00,43.0,30.0,-100.00,NE,47,4.0,11.0,61,0.00,,,0.01,42.000000,,2013-02-25 23:11:00,
2013-02-25 18:22:00,43.0,30.0,-100.00,NE,47,4.0,11.0,61,0.00,,,0.01,42.000000,,2013-02-25 23:22:00,
2013-02-25 18:52:00,43.0,30.0,-100.00,NNE,33,5.0,12.0,60,0.00,,,0.01,4.000000,,2013-02-25 23:52:00,
2013-02-25 19:02:00,43.0,30.0,-100.00,NNE,33,5.0,12.0,60,0.00,,,0.01,4.000000,,2013-02-26 00:02:00,
2013-02-25 19:12:00,43.0,30.0,-100.00,NNE,33,5.0,12.0,60,0.00,,,0.01,4.000000,,2013-02-26 00:12:00,
2013-02-25 19:22:00,43.0,30.0,-100.00,NNE,33,5.0,12.0,60,0.00,,,0.01,4.000000,,2013-02-26 00:22:00,
2013-02-25 19:52:00,42.0,29.0,-100.00,NE,36,5.0,13.0,59,0.00,,,0.01,0.000000,,2013-02-26 00:52:00,
2013-02-25 20:02:00,42.0,29.0,-100.00,NE,36,5.0,13.0,59,0.00,,,0.01,0.000000,,2013-02-26 01:02:00,
2013-02-25 20:11:00,42.0,29.0,-100.00,NE,36,5.0,13.0,59,0.00,,,0.01,0.000000,,2013-02-26 01:11:00,
2013-02-25 20:21:00,42.0,29.0,-100.00,NE,36,5.0,13.0,59,0.00,,,0.01,0.000000,,2013-02-26 01:21:00,
2013-02-25 20:52:00,42.0,29.0,-100.00,NE,36,5.0,12.0,60,0.00,,,0.01,0.000000,,2013-02-26 01:52:00,
2013-02-25 21:01:00,42.0,29.0,-100.00,NE,36,5.0,12.0,60,0.00,,,0.01,0.000000,,2013-02-26 02:01:00,
2013-02-25 21:11:00,42.0,29.0,-100.00,NE,36,5.0,12.0,60,0.00,,,0.01,0.000000,,2013-02-26 02:11:00,
2013-02-25 21:21:00,42.0,29.0,-100.00,NE,36,5.0,12.0,60,0.00,,,0.01,0.000000,,2013-02-26 02:21:00,
2013-02-25 21:52:00,43.0,32.0,-100.00,ENE,61,8.0,16.0,64,0.00,,,0.01,0.000000,,2013-02-26 02:52:00,
2013-02-25 22:02:00,43.0,32.0,-100.00,ENE,61,8.0,16.0,64,0.00,,,0.01,0.000000,,2013-02-26 03:02:00,
2013-02-25 22:12:00,43.0,32.0,-100.00,ENE,61,8.0,16.0,64,0.00,,,0.01,0.000000,,2013-02-26 03:12:00,
2013-02-25 22:22:00,43.0,32.0,-100.00,ENE,61,8.0,16.0,64,0.00,,,0.01,0.000000,,2013-02-26 03:22:00,
2013-02-25 22:52:00,43.0,32.0,-100.00,ENE,57,5.0,13.0,66,0.00,,,0.01,0.000000,,2013-02-26 03:52:00,
2013-02-25 23:02:00,43.0,32.0,-100.00,ENE,57,5.0,13.0,66,0.00,,,0.01,0.000000,,2013-02-26 04:02:00,
2013-02-25 23:11:00,43.0,32.0,-100.00,ENE,57,5.0,13.0,66,0.00,,,0.01,0.000000,,2013-02-26 04:11:00,
2013-02-25 23:22:00,43.0,32.0,-100.00,ENE,57,5.0,13.0,66,0.00,,,0.01,0.000000,,2013-02-26 04:22:00,
2013-02-25 23:52:00,44.0,34.0,-100.00,NE,47,5.0,15.0,67,0.00,,,0.01,0.000000,,2013-02-26 04:52:00,